Ana Sayfa
METAR-TAF:

METAR-TAF

Havaalanları :

Sindal, Danimarka

Enlem: 57-30N, Boylam: 010-13E, yükseklik: 28 m

Güncel hava durumu gözlemi

Rapor saat 12:50 UTC de 6 saat ve 36 dakika önce yapıldı.
Rüzgar batı/güneybatıdan 12 kt
Sıcaklık 6°C
Nem 81%
Basınç 1009 hPa
Görüş mesafesi 10 km veya daha fazla
2500 ft yükseklikte parçalı bulutlu
20000 ft yükseklikte parçalı çok bulutlu

METAR: EKSN 241250Z 25012KT 9999 SCT025 BKN200 06/03 Q1009

Saat: 20:26 (19:26 UTC)

Tahmin

Rapor saat 08:56 UTC de 10 saat ve 30 dakika önce yapıldı.
Ayın 24'si saat 09 UTC'den ayın 24'si saat 14 UTC'ye kadar geçerli Tahmin
Rüzgar batıdan 10 kt
Görüş mesafesi 10 km veya daha fazla
1500 ft yükseklikte parçalı bulutlu

TAF: EKSN 240856Z 2409/2414 27010KT 9999 SCT015

4.000'den fazla havaalanı için hava durumu gözlemleri ve tahminleri (METAR ve TAF raporları).

Kullanılabilir istasyonlar harita üzerinde sarı ve kırmızı noktalarla gösterilir.

İstasyonun adını görmek için fareyi noktanın üzerinde gezdirin.

Sonrasında hava gözlem ve tahminlerini görmek için tıklayın.

Haritayı değiştirmek için: yaklaştırmak için siyah artı işaretli yeşil düğmeye ve uzaklaştırmak için de eksi işaretli düğmeye hızla tıklayın; bitişik haritalar için yeşil okları kullanın.


METAR-TAF: